Eastern Cape — VRLD8 — position and weather

sailwx.info

Track history (hours):
 
Tides and Currents Weather Stations Pressure Air Temp Water Temp Dewpoint Dewpoint Depression Visibility Wind Speed Wind Dir Waves Ship Positions

Eastern Cape

Last reported at 2018-Jan-24 07:30 UTC. Time now 2018-Jan-24 07:41 UTC.
Position N 51°30' W 002°43'.

Length 170 m; draft 9.3 m.

Type: Ship. MMSI: 477334100.

Date/timePositionNaut miles runAvg speedWind from/ knotsBaromVisibWave heightAir tempDewpointWater temp
2018-Jan-24 07:30N 51°30' W 002°43'0 0.0
2018-Jan-24 07:00N 51°30' W 002°43'0 0.0
2018-Jan-24 06:30N 51°30' W 002°43'0 0.0
2018-Jan-24 06:00N 51°30' W 002°43'0 0.0
2018-Jan-24 05:30N 51°30' W 002°43'0 0.0
2018-Jan-24 05:00N 51°30' W 002°43'0 0.0
2018-Jan-24 04:30N 51°30' W 002°43'0 0.0
2018-Jan-24 04:00N 51°30' W 002°43'0 0.0
2018-Jan-24 03:30N 51°30' W 002°43'0 0.0
2018-Jan-24 03:00N 51°30' W 002°43'0 0.0
2018-Jan-24 02:30N 51°30' W 002°43'0 0.0
2018-Jan-24 02:00N 51°30' W 002°43'0 0.0
2018-Jan-24 01:30N 51°30' W 002°43'0 0.0
2018-Jan-24 01:00N 51°30' W 002°43'0 0.0
2018-Jan-24 00:30N 51°30' W 002°43'0 0.0
2018-Jan-24 00:00N 51°30' W 002°43'0 0.0
2018-Jan-23 23:30N 51°30' W 002°43'0 0.0
2018-Jan-23 23:00N 51°30' W 002°43'0 0.0
2018-Jan-23 22:30N 51°30' W 002°43'0 0.0
2018-Jan-23 22:00N 51°30' W 002°43'0 0.0
2018-Jan-23 21:30N 51°30' W 002°43'0 0.0
2018-Jan-23 21:00N 51°30' W 002°43'0 0.0
2018-Jan-23 20:30N 51°30' W 002°43'0 0.0
2018-Jan-23 20:00N 51°30' W 002°43'0 0.0
2018-Jan-23 19:30N 51°30' W 002°43'0 0.0
2018-Jan-23 19:00N 51°30' W 002°43'0 0.0
2018-Jan-23 18:30N 51°30' W 002°43'0 0.0
2018-Jan-23 18:00N 51°30' W 002°43'0 0.0
2018-Jan-23 17:30N 51°30' W 002°43'0 0.0
2018-Jan-23 17:00N 51°30' W 002°43'0 0.0
2018-Jan-23 16:30N 51°30' W 002°43'0 0.0
2018-Jan-23 16:00N 51°30' W 002°43'0 0.0
2018-Jan-23 15:30N 51°30' W 002°43'0 0.0
2018-Jan-23 15:00N 51°30' W 002°43'0 0.0
2018-Jan-23 14:30N 51°30' W 002°43'0 0.0
2018-Jan-23 14:00N 51°30' W 002°43'0 0.0
2018-Jan-23 13:30N 51°30' W 002°43'0 0.0
2018-Jan-23 13:00N 51°30' W 002°43'0 0.0
2018-Jan-23 12:30N 51°30' W 002°43'0 0.0
2018-Jan-23 12:00N 51°30' W 002°43'0 0.0
2018-Jan-23 11:30N 51°30' W 002°43'0 0.0
2018-Jan-23 11:00N 51°30' W 002°43'0 0.0
2018-Jan-23 10:30N 51°30' W 002°43'0 0.0
2018-Jan-23 10:00N 51°30' W 002°43'0 0.0
2018-Jan-23 09:30N 51°30' W 002°43'0 0.0
2018-Jan-23 09:00N 51°30' W 002°43'0 0.6
2018-Jan-23 08:30N 51°30' W 002°44'1 2.0
2018-Jan-23 08:00N 51°30' W 002°45'510.1
2018-Jan-23 07:31N 51°28' W 002°53'612.6
2018-Jan-23 07:00N 51°25' W 003°02'613.0
2018-Jan-23 06:30N 51°21' W 003°10'710.3
2018-Jan-23 05:51N 51°21' W 003°21'12 9.4
2018-Jan-23 04:37N 51°19' W 003°39'212.9
2018-Jan-23 04:30N 51°19' W 003°41'712.7
2018-Jan-23 03:58N 51°20' W 003°52'16 9.2
2018-Jan-23 02:12N 51°21' W 004°18'1 4.4
2018-Jan-23 01:57N 51°20' W 004°18'0 0.5
2018-Jan-23 01:30N 51°20' W 004°19'1 1.2
2018-Jan-23 01:00N 51°20' W 004°18'1 1.2
2018-Jan-23 00:30N 51°20' W 004°17'0 1.0
2018-Jan-23 00:00N 51°20' W 004°16'0 0.7
2018-Jan-22 23:29N 51°20' W 004°15'0 0.3
2018-Jan-22 23:00N 51°20' W 004°15'0 0.2
2018-Jan-22 22:30N 51°20' W 004°15'5 4.4
2018-Jan-22 21:21N 51°21' W 004°23'411.8
2018-Jan-22 21:00N 51°20' W 004°30'712.3
2018-Jan-22 20:25N 51°19' W 004°41'512.4
2018-Jan-22 19:59N 51°18' W 004°50'612.5
2018-Jan-22 19:30N 51°18' W 004°59'611.9
2018-Jan-22 19:00N 51°17' W 005°09'4 8.6
2018-Jan-22 18:30N 51°13' W 005°12'611.7
2018-Jan-22 18:00N 51°11' W 005°21'611.7
2018-Jan-22 17:30N 51°09' W 005°30'611.5
2018-Jan-22 17:00N 51°08' W 005°39'611.4
2018-Jan-22 16:30N 51°06' W 005°48'2211.1
2018-Jan-22 14:31N 51°02' W 006°22'010.5
2018-Jan-22 14:30N 51°02' W 006°22'  
Track history (hours):
 
Tides and Currents Weather Stations Pressure Air Temp Water Temp Dewpoint Dewpoint Depression Visibility Wind Speed Wind Dir Waves Ship Positions

Eastern Cape

Last reported at 2018-Jan-24 07:30 UTC. Time now 2018-Jan-24 07:41 UTC.
Position N 51°30' W 002°43'.

Length 170 m; draft 9.3 m.

Type: Ship. MMSI: 477334100.

Date/timePositionNaut miles runAvg speedWind from/ knotsBaromVisibWave heightAir tempDewpointWater temp
2018-Jan-24 07:30N 51°30' W 002°43'0 0.0
2018-Jan-24 07:00N 51°30' W 002°43'0 0.0
2018-Jan-24 06:30N 51°30' W 002°43'0 0.0
2018-Jan-24 06:00N 51°30' W 002°43'0 0.0
2018-Jan-24 05:30N 51°30' W 002°43'0 0.0
2018-Jan-24 05:00N 51°30' W 002°43'0 0.0
2018-Jan-24 04:30N 51°30' W 002°43'0 0.0
2018-Jan-24 04:00N 51°30' W 002°43'0 0.0
2018-Jan-24 03:30N 51°30' W 002°43'0 0.0
2018-Jan-24 03:00N 51°30' W 002°43'0 0.0
2018-Jan-24 02:30N 51°30' W 002°43'0 0.0
2018-Jan-24 02:00N 51°30' W 002°43'0 0.0
2018-Jan-24 01:30N 51°30' W 002°43'0 0.0
2018-Jan-24 01:00N 51°30' W 002°43'0 0.0
2018-Jan-24 00:30N 51°30' W 002°43'0 0.0
2018-Jan-24 00:00N 51°30' W 002°43'0 0.0
2018-Jan-23 23:30N 51°30' W 002°43'0 0.0
2018-Jan-23 23:00N 51°30' W 002°43'0 0.0
2018-Jan-23 22:30N 51°30' W 002°43'0 0.0
2018-Jan-23 22:00N 51°30' W 002°43'0 0.0
2018-Jan-23 21:30N 51°30' W 002°43'0 0.0
2018-Jan-23 21:00N 51°30' W 002°43'0 0.0
2018-Jan-23 20:30N 51°30' W 002°43'0 0.0
2018-Jan-23 20:00N 51°30' W 002°43'0 0.0
2018-Jan-23 19:30N 51°30' W 002°43'0 0.0
2018-Jan-23 19:00N 51°30' W 002°43'0 0.0
2018-Jan-23 18:30N 51°30' W 002°43'0 0.0
2018-Jan-23 18:00N 51°30' W 002°43'0 0.0
2018-Jan-23 17:30N 51°30' W 002°43'0 0.0
2018-Jan-23 17:00N 51°30' W 002°43'0 0.0
2018-Jan-23 16:30N 51°30' W 002°43'0 0.0
2018-Jan-23 16:00N 51°30' W 002°43'0 0.0
2018-Jan-23 15:30N 51°30' W 002°43'0 0.0
2018-Jan-23 15:00N 51°30' W 002°43'0 0.0
2018-Jan-23 14:30N 51°30' W 002°43'0 0.0
2018-Jan-23 14:00N 51°30' W 002°43'0 0.0
2018-Jan-23 13:30N 51°30' W 002°43'0 0.0
2018-Jan-23 13:00N 51°30' W 002°43'0 0.0
2018-Jan-23 12:30N 51°30' W 002°43'0 0.0
2018-Jan-23 12:00N 51°30' W 002°43'0 0.0
2018-Jan-23 11:30N 51°30' W 002°43'0 0.0
2018-Jan-23 11:00N 51°30' W 002°43'0 0.0
2018-Jan-23 10:30N 51°30' W 002°43'0 0.0
2018-Jan-23 10:00N 51°30' W 002°43'0 0.0
2018-Jan-23 09:30N 51°30' W 002°43'0 0.0
2018-Jan-23 09:00N 51°30' W 002°43'0 0.6
2018-Jan-23 08:30N 51°30' W 002°44'1 2.0
2018-Jan-23 08:00N 51°30' W 002°45'510.1
2018-Jan-23 07:31N 51°28' W 002°53'612.6
2018-Jan-23 07:00N 51°25' W 003°02'613.0
2018-Jan-23 06:30N 51°21' W 003°10'710.3
2018-Jan-23 05:51N 51°21' W 003°21'12 9.4
2018-Jan-23 04:37N 51°19' W 003°39'212.9
2018-Jan-23 04:30N 51°19' W 003°41'712.7
2018-Jan-23 03:58N 51°20' W 003°52'16 9.2
2018-Jan-23 02:12N 51°21' W 004°18'1 4.4
2018-Jan-23 01:57N 51°20' W 004°18'0 0.5
2018-Jan-23 01:30N 51°20' W 004°19'1 1.2
2018-Jan-23 01:00N 51°20' W 004°18'1 1.2
2018-Jan-23 00:30N 51°20' W 004°17'0 1.0
2018-Jan-23 00:00N 51°20' W 004°16'0 0.7
2018-Jan-22 23:29N 51°20' W 004°15'0 0.3
2018-Jan-22 23:00N 51°20' W 004°15'0 0.2
2018-Jan-22 22:30N 51°20' W 004°15'5 4.4
2018-Jan-22 21:21N 51°21' W 004°23'411.8
2018-Jan-22 21:00N 51°20' W 004°30'712.3
2018-Jan-22 20:25N 51°19' W 004°41'512.4
2018-Jan-22 19:59N 51°18' W 004°50'612.5
2018-Jan-22 19:30N 51°18' W 004°59'611.9
2018-Jan-22 19:00N 51°17' W 005°09'4 8.6
2018-Jan-22 18:30N 51°13' W 005°12'611.7
2018-Jan-22 18:00N 51°11' W 005°21'611.7
2018-Jan-22 17:30N 51°09' W 005°30'611.5
2018-Jan-22 17:00N 51°08' W 005°39'611.4
2018-Jan-22 16:30N 51°06' W 005°48'2211.1
2018-Jan-22 14:31N 51°02' W 006°22'010.5
2018-Jan-22 14:30N 51°02' W 006°22'  

Dump ship's entire track history